Pudoz, Russia
Current Conditions -  °F | °C
As of 6:00 AM on Saturday 29 Nov 2014 (Local Time) from ULPB Reporting Station
NA  
Wind Chill: 17°   Ceiling: NA
Heat Index: 25°   Visibility: 6mi
Dew Point: 23°   Wind: 7mph
Humidity: 93%   Direction: 240°WSW
Pressure: 30.59"   Gusts: NA
Location:  61.8°N, 36.52°E
Report Text: ULPB 290300Z AUTO 24003MPS 210V270 9999 ////// M04/M05 Q1036
Loading
Personal Weather Stations






























Interactive Weather Map New forecast layout! Learn more

10-Day Weather Forecast

Advertisements
Track Severe Weather on mobile